sensor_id;sensor_type;location;lat;lon;timestamp;temperature;humidity
17381;DHT22;8808;52.478;13.378;2023-04-01T00:02:06;10.10;99.90
17381;DHT22;8808;52.478;13.378;2023-04-01T00:04:35;10.10;99.90
17381;DHT22;8808;52.478;13.378;2023-04-01T00:07:02;10.10;99.90
17381;DHT22;8808;52.478;13.378;2023-04-01T00:09:29;10.10;99.90
17381;DHT22;8808;52.478;13.378;2023-04-01T00:11:57;9.90;99.90
17381;DHT22;8808;52.478;13.378;2023-04-01T00:14:24;10.10;99.90
17381;DHT22;8808;52.478;13.378;2023-04-01T00:16:51;10.00;99.90
17381;DHT22;8808;52.478;13.378;2023-04-01T00:19:18;10.00;99.90
17381;DHT22;8808;52.478;13.378;2023-04-01T00:21:45;10.10;99.90
17381;DHT22;8808;52.478;13.378;2023-04-01T00:24:13;10.10;99.90
17381;DHT22;8808;52.478;13.378;2023-04-01T00:26:40;10.10;99.90
17381;DHT22;8808;52.478;13.378;2023-04-01T00:29:11;10.10;99.90
17381;DHT22;8808;52.478;13.378;2023-04-01T00:31:37;10.10;99.90
17381;DHT22;8808;52.478;13.378;2023-04-01T00:34:04;10.10;99.90
17381;DHT22;8808;52.478;13.378;2023-04-01T00:36:32;10.10;99.90
17381;DHT22;8808;52.478;13.378;2023-04-01T00:38:59;10.10;99.90
17381;DHT22;8808;52.478;13.378;2023-04-01T00:41:26;10.10;99.90
17381;DHT22;8808;52.478;13.378;2023-04-01T00:44:14;10.10;99.90
17381;DHT22;8808;52.478;13.378;2023-04-01T00:46:42;10.20;99.90
17381;DHT22;8808;52.478;13.378;2023-04-01T00:49:09;10.20;99.90
17381;DHT22;8808;52.478;13.378;2023-04-01T00:51:37;10.20;99.90
17381;DHT22;8808;52.478;13.378;2023-04-01T00:54:07;10.20;99.90
17381;DHT22;8808;52.478;13.378;2023-04-01T00:56:36;10.20;99.90
17381;DHT22;8808;52.478;13.378;2023-04-01T00:59:08;10.20;99.90
17381;DHT22;8808;52.478;13.378;2023-04-01T01:04:23;10.20;99.90
17381;DHT22;8808;52.478;13.378;2023-04-01T01:06:56;10.20;99.90
17381;DHT22;8808;52.478;13.378;2023-04-01T01:09:31;10.20;99.90
17381;DHT22;8808;52.478;13.378;2023-04-01T01:12:05;10.10;99.90
17381;DHT22;8808;52.478;13.378;2023-04-01T01:14:43;10.10;99.90
17381;DHT22;8808;52.478;13.378;2023-04-01T01:17:16;10.10;99.90
17381;DHT22;8808;52.478;13.378;2023-04-01T01:20:27;10.10;99.90
17381;DHT22;8808;52.478;13.378;2023-04-01T01:23:33;10.20;99.90
17381;DHT22;8808;52.478;13.378;2023-04-01T01:26:34;10.20;99.90
17381;DHT22;8808;52.478;13.378;2023-04-01T01:29:11;10.20;99.90
17381;DHT22;8808;52.478;13.378;2023-04-01T01:31:47;10.20;99.90
17381;DHT22;8808;52.478;13.378;2023-04-01T01:34:21;10.20;99.90
17381;DHT22;8808;52.478;13.378;2023-04-01T01:36:55;10.20;99.90
17381;DHT22;8808;52.478;13.378;2023-04-01T01:39:26;10.20;99.90
17381;DHT22;8808;52.478;13.378;2023-04-01T01:41:56;10.20;99.90
17381;DHT22;8808;52.478;13.378;2023-04-01T01:44:25;10.20;99.90
17381;DHT22;8808;52.478;13.378;2023-04-01T01:46:53;10.20;99.90
17381;DHT22;8808;52.478;13.378;2023-04-01T01:49:21;10.20;99.90
17381;DHT22;8808;52.478;13.378;2023-04-01T01:51:50;10.20;99.90
17381;DHT22;8808;52.478;13.378;2023-04-01T01:54:17;10.10;99.90
17381;DHT22;8808;52.478;13.378;2023-04-01T01:56:46;10.20;99.90
17381;DHT22;8808;52.478;13.378;2023-04-01T01:59:16;10.10;99.90
17381;DHT22;8808;52.478;13.378;2023-04-01T02:01:48;10.10;99.90
17381;DHT22;8808;52.478;13.378;2023-04-01T02:04:16;10.20;99.90
17381;DHT22;8808;52.478;13.378;2023-04-01T02:06:50;10.20;99.90
17381;DHT22;8808;52.478;13.378;2023-04-01T02:09:20;10.20;99.90
17381;DHT22;8808;52.478;13.378;2023-04-01T02:11:50;10.20;99.90
17381;DHT22;8808;52.478;13.378;2023-04-01T02:14:21;10.10;99.90
17381;DHT22;8808;52.478;13.378;2023-04-01T02:16:52;10.20;99.90
17381;DHT22;8808;52.478;13.378;2023-04-01T02:19:21;10.20;99.90
17381;DHT22;8808;52.478;13.378;2023-04-01T02:21:54;10.10;99.90
17381;DHT22;8808;52.478;13.378;2023-04-01T02:24:23;10.10;99.90
17381;DHT22;8808;52.478;13.378;2023-04-01T02:26:51;10.10;99.90
17381;DHT22;8808;52.478;13.378;2023-04-01T02:29:21;10.20;99.90
17381;DHT22;8808;52.478;13.378;2023-04-01T02:31:50;10.10;99.90
17381;DHT22;8808;52.478;13.378;2023-04-01T02:34:18;10.10;99.90
17381;DHT22;8808;52.478;13.378;2023-04-01T02:36:47;10.00;99.90
17381;DHT22;8808;52.478;13.378;2023-04-01T02:39:16;10.10;99.90
17381;DHT22;8808;52.478;13.378;2023-04-01T02:41:45;10.00;99.90
17381;DHT22;8808;52.478;13.378;2023-04-01T02:44:14;9.90;99.90
17381;DHT22;8808;52.478;13.378;2023-04-01T02:46:42;9.80;99.90
17381;DHT22;8808;52.478;13.378;2023-04-01T02:49:09;9.80;99.90
17381;DHT22;8808;52.478;13.378;2023-04-01T02:51:36;9.70;99.90
17381;DHT22;8808;52.478;13.378;2023-04-01T02:54:03;9.70;99.90
17381;DHT22;8808;52.478;13.378;2023-04-01T02:56:32;9.70;99.90
17381;DHT22;8808;52.478;13.378;2023-04-01T02:58:59;9.70;99.90
17381;DHT22;8808;52.478;13.378;2023-04-01T03:01:26;9.60;99.90
17381;DHT22;8808;52.478;13.378;2023-04-01T03:03:53;9.70;99.90
17381;DHT22;8808;52.478;13.378;2023-04-01T03:06:20;9.80;99.90
17381;DHT22;8808;52.478;13.378;2023-04-01T03:08:47;9.70;99.90
17381;DHT22;8808;52.478;13.378;2023-04-01T03:11:14;9.70;99.90
17381;DHT22;8808;52.478;13.378;2023-04-01T03:13:42;9.90;99.90
17381;DHT22;8808;52.478;13.378;2023-04-01T03:16:09;9.80;99.90
17381;DHT22;8808;52.478;13.378;2023-04-01T03:18:36;9.80;99.90
17381;DHT22;8808;52.478;13.378;2023-04-01T03:21:14;9.80;99.90
17381;DHT22;8808;52.478;13.378;2023-04-01T03:23:41;9.90;99.90
17381;DHT22;8808;52.478;13.378;2023-04-01T03:26:08;9.90;99.90
17381;DHT22;8808;52.478;13.378;2023-04-01T03:28:35;9.90;99.90
17381;DHT22;8808;52.478;13.378;2023-04-01T03:31:03;9.90;99.90
17381;DHT22;8808;52.478;13.378;2023-04-01T03:33:30;9.90;99.90
17381;DHT22;8808;52.478;13.378;2023-04-01T03:35:57;9.90;99.90
17381;DHT22;8808;52.478;13.378;2023-04-01T03:38:24;9.90;99.90
17381;DHT22;8808;52.478;13.378;2023-04-01T03:40:51;9.90;99.90
17381;DHT22;8808;52.478;13.378;2023-04-01T03:43:18;9.80;99.90
17381;DHT22;8808;52.478;13.378;2023-04-01T03:45:46;9.90;99.90
17381;DHT22;8808;52.478;13.378;2023-04-01T03:48:15;9.90;99.90
17381;DHT22;8808;52.478;13.378;2023-04-01T03:50:42;9.90;99.90
17381;DHT22;8808;52.478;13.378;2023-04-01T03:53:10;9.90;99.90
17381;DHT22;8808;52.478;13.378;2023-04-01T03:55:38;9.90;99.90
17381;DHT22;8808;52.478;13.378;2023-04-01T03:58:05;9.90;99.90
17381;DHT22;8808;52.478;13.378;2023-04-01T04:00:33;9.90;99.90
17381;DHT22;8808;52.478;13.378;2023-04-01T04:03:00;9.90;99.90
17381;DHT22;8808;52.478;13.378;2023-04-01T04:05:28;9.90;99.90
17381;DHT22;8808;52.478;13.378;2023-04-01T04:07:55;9.90;99.90
17381;DHT22;8808;52.478;13.378;2023-04-01T04:10:22;9.90;99.90
17381;DHT22;8808;52.478;13.378;2023-04-01T04:12:50;10.00;99.90
17381;DHT22;8808;52.478;13.378;2023-04-01T04:15:17;10.00;99.90
17381;DHT22;8808;52.478;13.378;2023-04-01T04:17:45;10.00;99.90
17381;DHT22;8808;52.478;13.378;2023-04-01T04:20:12;9.90;99.90
17381;DHT22;8808;52.478;13.378;2023-04-01T04:22:40;10.00;99.90
17381;DHT22;8808;52.478;13.378;2023-04-01T04:25:08;10.00;99.90
17381;DHT22;8808;52.478;13.378;2023-04-01T04:27:35;10.00;99.90
17381;DHT22;8808;52.478;13.378;2023-04-01T04:30:03;10.00;99.90
17381;DHT22;8808;52.478;13.378;2023-04-01T04:32:30;10.00;99.90
17381;DHT22;8808;52.478;13.378;2023-04-01T04:34:57;10.10;99.90
17381;DHT22;8808;52.478;13.378;2023-04-01T04:37:24;10.10;99.90
17381;DHT22;8808;52.478;13.378;2023-04-01T04:39:53;10.10;99.90
17381;DHT22;8808;52.478;13.378;2023-04-01T04:42:20;10.20;99.90
17381;DHT22;8808;52.478;13.378;2023-04-01T04:44:47;10.10;99.90
17381;DHT22;8808;52.478;13.378;2023-04-01T04:47:14;10.00;99.90
17381;DHT22;8808;52.478;13.378;2023-04-01T04:49:41;10.00;99.90
17381;DHT22;8808;52.478;13.378;2023-04-01T04:52:08;9.90;99.90
17381;DHT22;8808;52.478;13.378;2023-04-01T04:54:35;10.00;99.90
17381;DHT22;8808;52.478;13.378;2023-04-01T04:57:03;10.00;99.90
17381;DHT22;8808;52.478;13.378;2023-04-01T04:59:31;10.00;99.90
17381;DHT22;8808;52.478;13.378;2023-04-01T05:01:58;10.10;99.90
17381;DHT22;8808;52.478;13.378;2023-04-01T05:04:25;10.00;99.90
17381;DHT22;8808;52.478;13.378;2023-04-01T05:06:52;10.00;99.90
17381;DHT22;8808;52.478;13.378;2023-04-01T05:09:19;10.00;99.90
17381;DHT22;8808;52.478;13.378;2023-04-01T05:11:46;9.90;99.90
17381;DHT22;8808;52.478;13.378;2023-04-01T05:14:15;9.90;99.90
17381;DHT22;8808;52.478;13.378;2023-04-01T05:16:42;9.90;99.90
17381;DHT22;8808;52.478;13.378;2023-04-01T05:19:09;10.00;99.90
17381;DHT22;8808;52.478;13.378;2023-04-01T05:21:37;10.00;99.90
17381;DHT22;8808;52.478;13.378;2023-04-01T05:24:07;10.00;99.90
17381;DHT22;8808;52.478;13.378;2023-04-01T05:26:34;10.00;99.90
17381;DHT22;8808;52.478;13.378;2023-04-01T05:29:02;10.00;99.90
17381;DHT22;8808;52.478;13.378;2023-04-01T05:31:30;10.00;99.90
17381;DHT22;8808;52.478;13.378;2023-04-01T05:33:57;10.00;99.90
17381;DHT22;8808;52.478;13.378;2023-04-01T05:36:24;10.00;99.90
17381;DHT22;8808;52.478;13.378;2023-04-01T05:38:54;10.10;99.90
17381;DHT22;8808;52.478;13.378;2023-04-01T05:41:21;10.10;99.90
17381;DHT22;8808;52.478;13.378;2023-04-01T05:43:48;10.10;99.90
17381;DHT22;8808;52.478;13.378;2023-04-01T05:46:15;10.10;99.90
17381;DHT22;8808;52.478;13.378;2023-04-01T05:48:44;10.10;99.90
17381;DHT22;8808;52.478;13.378;2023-04-01T05:51:12;10.20;99.90
17381;DHT22;8808;52.478;13.378;2023-04-01T05:53:40;10.20;99.90
17381;DHT22;8808;52.478;13.378;2023-04-01T05:56:07;10.20;99.90
17381;DHT22;8808;52.478;13.378;2023-04-01T05:58:35;10.20;99.90
17381;DHT22;8808;52.478;13.378;2023-04-01T06:01:03;10.30;99.90
17381;DHT22;8808;52.478;13.378;2023-04-01T06:03:30;10.30;99.90
17381;DHT22;8808;52.478;13.378;2023-04-01T06:05:58;10.30;99.90
17381;DHT22;8808;52.478;13.378;2023-04-01T06:08:27;10.30;99.90
17381;DHT22;8808;52.478;13.378;2023-04-01T06:11:17;10.30;99.90
17381;DHT22;8808;52.478;13.378;2023-04-01T06:14:10;10.20;99.90
17381;DHT22;8808;52.478;13.378;2023-04-01T06:16:50;10.30;99.90
17381;DHT22;8808;52.478;13.378;2023-04-01T06:19:31;10.30;99.90
17381;DHT22;8808;52.478;13.378;2023-04-01T06:31:21;10.40;99.90
17381;DHT22;8808;52.478;13.378;2023-04-01T06:34:00;10.40;99.90
17381;DHT22;8808;52.478;13.378;2023-04-01T06:36:53;10.40;99.90
17381;DHT22;8808;52.478;13.378;2023-04-01T06:39:38;10.40;99.90
17381;DHT22;8808;52.478;13.378;2023-04-01T06:42:21;10.50;99.90
17381;DHT22;8808;52.478;13.378;2023-04-01T06:44:58;10.50;99.90
17381;DHT22;8808;52.478;13.378;2023-04-01T06:47:38;10.70;99.90
17381;DHT22;8808;52.478;13.378;2023-04-01T06:50:15;10.50;99.90
17381;DHT22;8808;52.478;13.378;2023-04-01T06:52:50;10.60;99.90
17381;DHT22;8808;52.478;13.378;2023-04-01T06:55:27;10.60;99.90
17381;DHT22;8808;52.478;13.378;2023-04-01T06:58:00;10.60;99.90
17381;DHT22;8808;52.478;13.378;2023-04-01T07:00:31;10.70;99.90
17381;DHT22;8808;52.478;13.378;2023-04-01T07:03:06;10.60;99.90
17381;DHT22;8808;52.478;13.378;2023-04-01T07:05:37;10.60;99.90
17381;DHT22;8808;52.478;13.378;2023-04-01T07:08:09;10.70;99.90
17381;DHT22;8808;52.478;13.378;2023-04-01T07:10:43;10.70;99.90
17381;DHT22;8808;52.478;13.378;2023-04-01T07:13:15;10.70;99.90
17381;DHT22;8808;52.478;13.378;2023-04-01T07:15:51;10.90;99.90
17381;DHT22;8808;52.478;13.378;2023-04-01T07:18:29;11.00;99.90
17381;DHT22;8808;52.478;13.378;2023-04-01T07:20:57;11.00;99.90
17381;DHT22;8808;52.478;13.378;2023-04-01T07:23:28;11.00;99.90
17381;DHT22;8808;52.478;13.378;2023-04-01T07:25:58;10.90;99.90
17381;DHT22;8808;52.478;13.378;2023-04-01T07:28:30;11.00;99.90
17381;DHT22;8808;52.478;13.378;2023-04-01T07:31:04;11.10;99.90
17381;DHT22;8808;52.478;13.378;2023-04-01T07:33:40;11.20;99.90
17381;DHT22;8808;52.478;13.378;2023-04-01T07:36:13;11.20;99.90
17381;DHT22;8808;52.478;13.378;2023-04-01T07:38:52;11.20;99.90
17381;DHT22;8808;52.478;13.378;2023-04-01T07:41:30;11.40;99.90
17381;DHT22;8808;52.478;13.378;2023-04-01T07:44:06;11.40;99.90
17381;DHT22;8808;52.478;13.378;2023-04-01T07:46:49;11.50;99.90
17381;DHT22;8808;52.478;13.378;2023-04-01T07:49:26;11.40;99.90
17381;DHT22;8808;52.478;13.378;2023-04-01T07:52:00;11.50;99.90
17381;DHT22;8808;52.478;13.378;2023-04-01T07:54:37;11.40;99.90
17381;DHT22;8808;52.478;13.378;2023-04-01T07:57:09;11.50;99.90
17381;DHT22;8808;52.478;13.378;2023-04-01T07:59:44;11.70;99.90
17381;DHT22;8808;52.478;13.378;2023-04-01T08:02:26;11.90;99.90
17381;DHT22;8808;52.478;13.378;2023-04-01T08:05:03;11.80;99.90
17381;DHT22;8808;52.478;13.378;2023-04-01T08:07:38;11.90;99.90
17381;DHT22;8808;52.478;13.378;2023-04-01T08:10:13;12.20;99.90
17381;DHT22;8808;52.478;13.378;2023-04-01T08:12:50;12.50;99.90
17381;DHT22;8808;52.478;13.378;2023-04-01T08:15:22;12.50;99.90
17381;DHT22;8808;52.478;13.378;2023-04-01T08:18:02;12.50;99.90
17381;DHT22;8808;52.478;13.378;2023-04-01T08:20:36;12.20;99.90
17381;DHT22;8808;52.478;13.378;2023-04-01T08:23:11;12.30;99.90
17381;DHT22;8808;52.478;13.378;2023-04-01T08:25:42;12.20;99.90
17381;DHT22;8808;52.478;13.378;2023-04-01T08:28:17;12.40;99.90
17381;DHT22;8808;52.478;13.378;2023-04-01T08:30:49;12.50;99.90
17381;DHT22;8808;52.478;13.378;2023-04-01T08:33:21;12.60;99.90
17381;DHT22;8808;52.478;13.378;2023-04-01T08:35:54;12.40;99.90
17381;DHT22;8808;52.478;13.378;2023-04-01T08:38:26;12.40;99.90
17381;DHT22;8808;52.478;13.378;2023-04-01T08:41:04;12.30;99.90
17381;DHT22;8808;52.478;13.378;2023-04-01T08:43:54;12.20;99.90
17381;DHT22;8808;52.478;13.378;2023-04-01T08:52:36;11.80;99.90
17381;DHT22;8808;52.478;13.378;2023-04-01T08:55:27;11.90;99.90
17381;DHT22;8808;52.478;13.378;2023-04-01T08:58:17;11.60;99.90
17381;DHT22;8808;52.478;13.378;2023-04-01T09:00:50;11.70;99.90
17381;DHT22;8808;52.478;13.378;2023-04-01T09:03:41;11.50;99.90
17381;DHT22;8808;52.478;13.378;2023-04-01T09:09:21;11.40;99.90
17381;DHT22;8808;52.478;13.378;2023-04-01T09:15:12;11.00;99.90
17381;DHT22;8808;52.478;13.378;2023-04-01T09:20:53;10.90;99.90
17381;DHT22;8808;52.478;13.378;2023-04-01T09:23:48;10.90;99.90
17381;DHT22;8808;52.478;13.378;2023-04-01T09:26:40;11.00;99.90
17381;DHT22;8808;52.478;13.378;2023-04-01T09:29:19;10.90;99.90
17381;DHT22;8808;52.478;13.378;2023-04-01T09:32:10;10.80;99.90
17381;DHT22;8808;52.478;13.378;2023-04-01T09:34:52;10.90;99.90
17381;DHT22;8808;52.478;13.378;2023-04-01T09:37:25;10.70;99.90
17381;DHT22;8808;52.478;13.378;2023-04-01T09:40:17;10.60;99.90
17381;DHT22;8808;52.478;13.378;2023-04-01T09:43:01;10.60;99.90
17381;DHT22;8808;52.478;13.378;2023-04-01T09:45:42;10.50;99.90
17381;DHT22;8808;52.478;13.378;2023-04-01T09:48:24;10.50;99.90
17381;DHT22;8808;52.478;13.378;2023-04-01T09:50:59;10.60;99.90
17381;DHT22;8808;52.478;13.378;2023-04-01T09:53:37;10.70;99.90
17381;DHT22;8808;52.478;13.378;2023-04-01T09:56:41;10.40;99.90
17381;DHT22;8808;52.478;13.378;2023-04-01T10:12:07;10.40;99.90
17381;DHT22;8808;52.478;13.378;2023-04-01T10:17:56;10.40;99.90
17381;DHT22;8808;52.478;13.378;2023-04-01T10:21:02;10.60;99.90
17381;DHT22;8808;52.478;13.378;2023-04-01T10:23:52;10.40;99.90
17381;DHT22;8808;52.478;13.378;2023-04-01T10:29:31;10.50;99.90
17381;DHT22;8808;52.478;13.378;2023-04-01T10:35:46;10.50;99.90
17381;DHT22;8808;52.478;13.378;2023-04-01T10:44:43;10.30;99.90
17381;DHT22;8808;52.478;13.378;2023-04-01T10:54:21;10.20;99.90
17381;DHT22;8808;52.478;13.378;2023-04-01T10:56:57;10.20;99.90
17381;DHT22;8808;52.478;13.378;2023-04-01T10:59:50;10.40;99.90
17381;DHT22;8808;52.478;13.378;2023-04-01T11:06:03;10.10;99.90
17381;DHT22;8808;52.478;13.378;2023-04-01T11:21:56;10.10;99.90
17381;DHT22;8808;52.478;13.378;2023-04-01T11:24:40;10.20;99.90
17381;DHT22;8808;52.478;13.378;2023-04-01T11:27:24;10.30;99.90
17381;DHT22;8808;52.478;13.378;2023-04-01T11:30:04;10.20;99.90
17381;DHT22;8808;52.478;13.378;2023-04-01T11:32:42;10.20;99.90
17381;DHT22;8808;52.478;13.378;2023-04-01T11:35:38;10.30;99.90
17381;DHT22;8808;52.478;13.378;2023-04-01T11:38:26;10.30;99.90
17381;DHT22;8808;52.478;13.378;2023-04-01T11:41:02;10.20;99.90
17381;DHT22;8808;52.478;13.378;2023-04-01T11:43:37;10.30;99.90
17381;DHT22;8808;52.478;13.378;2023-04-01T11:46:10;10.20;99.90
17381;DHT22;8808;52.478;13.378;2023-04-01T11:48:44;10.20;99.90
17381;DHT22;8808;52.478;13.378;2023-04-01T11:51:42;10.10;99.90
17381;DHT22;8808;52.478;13.378;2023-04-01T11:54:27;10.10;99.90
17381;DHT22;8808;52.478;13.378;2023-04-01T11:57:13;10.00;99.90
17381;DHT22;8808;52.478;13.378;2023-04-01T12:00:02;10.10;99.90
17381;DHT22;8808;52.478;13.378;2023-04-01T12:02:47;10.00;99.90
17381;DHT22;8808;52.478;13.378;2023-04-01T12:05:32;9.80;99.90
17381;DHT22;8808;52.478;13.378;2023-04-01T12:08:09;9.80;99.90
17381;DHT22;8808;52.478;13.378;2023-04-01T12:10:39;9.80;99.90
17381;DHT22;8808;52.478;13.378;2023-04-01T12:13:18;9.80;99.90
17381;DHT22;8808;52.478;13.378;2023-04-01T12:16:04;9.90;99.90
17381;DHT22;8808;52.478;13.378;2023-04-01T12:18:41;9.80;99.90
17381;DHT22;8808;52.478;13.378;2023-04-01T12:21:17;9.80;99.90
17381;DHT22;8808;52.478;13.378;2023-04-01T12:26:56;9.80;99.90
17381;DHT22;8808;52.478;13.378;2023-04-01T12:32:31;9.50;99.90
17381;DHT22;8808;52.478;13.378;2023-04-01T12:38:08;9.70;99.90
17381;DHT22;8808;52.478;13.378;2023-04-01T12:40:56;9.70;99.90
17381;DHT22;8808;52.478;13.378;2023-04-01T12:43:59;9.60;99.90
17381;DHT22;8808;52.478;13.378;2023-04-01T12:46:38;9.60;99.90
17381;DHT22;8808;52.478;13.378;2023-04-01T12:52:09;9.60;99.90
17381;DHT22;8808;52.478;13.378;2023-04-01T12:55:08;9.40;99.90
17381;DHT22;8808;52.478;13.378;2023-04-01T13:00:55;9.50;99.90
17381;DHT22;8808;52.478;13.378;2023-04-01T13:03:53;9.60;99.90
17381;DHT22;8808;52.478;13.378;2023-04-01T13:09:28;9.60;99.90
17381;DHT22;8808;52.478;13.378;2023-04-01T13:12:16;9.50;99.90
17381;DHT22;8808;52.478;13.378;2023-04-01T13:17:52;9.40;99.90
17381;DHT22;8808;52.478;13.378;2023-04-01T13:20:30;9.40;99.90
17381;DHT22;8808;52.478;13.378;2023-04-01T13:23:10;9.30;99.90
17381;DHT22;8808;52.478;13.378;2023-04-01T13:25:49;9.40;99.90
17381;DHT22;8808;52.478;13.378;2023-04-01T13:28:21;9.50;99.90
17381;DHT22;8808;52.478;13.378;2023-04-01T13:30:57;9.30;99.90
17381;DHT22;8808;52.478;13.378;2023-04-01T13:33:32;9.10;99.90
17381;DHT22;8808;52.478;13.378;2023-04-01T13:36:11;9.20;99.90
17381;DHT22;8808;52.478;13.378;2023-04-01T13:41:55;9.20;99.90
17381;DHT22;8808;52.478;13.378;2023-04-01T13:44:31;9.30;99.90
17381;DHT22;8808;52.478;13.378;2023-04-01T13:47:19;9.20;99.90
17381;DHT22;8808;52.478;13.378;2023-04-01T13:50:05;9.30;99.90
17381;DHT22;8808;52.478;13.378;2023-04-01T13:55:54;9.40;99.90
17381;DHT22;8808;52.478;13.378;2023-04-01T14:01:38;9.20;99.90
17381;DHT22;8808;52.478;13.378;2023-04-01T14:04:34;9.00;99.90
17381;DHT22;8808;52.478;13.378;2023-04-01T14:07:22;9.00;99.90
17381;DHT22;8808;52.478;13.378;2023-04-01T14:10:07;9.10;99.90
17381;DHT22;8808;52.478;13.378;2023-04-01T14:12:40;9.10;99.90
17381;DHT22;8808;52.478;13.378;2023-04-01T14:15:23;9.00;99.90
17381;DHT22;8808;52.478;13.378;2023-04-01T14:18:10;9.00;99.90
17381;DHT22;8808;52.478;13.378;2023-04-01T14:20:41;9.00;99.90
17381;DHT22;8808;52.478;13.378;2023-04-01T14:23:39;8.80;99.90
17381;DHT22;8808;52.478;13.378;2023-04-01T14:26:30;8.90;99.90
17381;DHT22;8808;52.478;13.378;2023-04-01T14:29:09;9.00;99.90
17381;DHT22;8808;52.478;13.378;2023-04-01T14:31:51;9.00;99.90
17381;DHT22;8808;52.478;13.378;2023-04-01T14:34:34;9.00;99.90
17381;DHT22;8808;52.478;13.378;2023-04-01T14:37:20;8.70;99.90
17381;DHT22;8808;52.478;13.378;2023-04-01T14:40:20;8.90;99.90
17381;DHT22;8808;52.478;13.378;2023-04-01T14:46:09;9.00;99.90
17381;DHT22;8808;52.478;13.378;2023-04-01T14:48:50;8.80;99.90
17381;DHT22;8808;52.478;13.378;2023-04-01T14:51:23;8.80;99.90
17381;DHT22;8808;52.478;13.378;2023-04-01T14:54:03;8.70;99.90
17381;DHT22;8808;52.478;13.378;2023-04-01T15:11:12;8.60;99.90
17381;DHT22;8808;52.478;13.378;2023-04-01T15:13:59;8.70;99.90
17381;DHT22;8808;52.478;13.378;2023-04-01T15:16:36;8.60;99.90
17381;DHT22;8808;52.478;13.378;2023-04-01T15:19:14;8.60;99.90
17381;DHT22;8808;52.478;13.378;2023-04-01T15:21:50;8.40;99.90
17381;DHT22;8808;52.478;13.378;2023-04-01T15:24:24;8.60;99.90
17381;DHT22;8808;52.478;13.378;2023-04-01T15:27:14;8.60;99.90
17381;DHT22;8808;52.478;13.378;2023-04-01T15:30:21;8.40;99.90
17381;DHT22;8808;52.478;13.378;2023-04-01T15:33:06;8.40;99.90
17381;DHT22;8808;52.478;13.378;2023-04-01T15:35:41;8.30;99.90
17381;DHT22;8808;52.478;13.378;2023-04-01T15:38:20;8.30;99.90
17381;DHT22;8808;52.478;13.378;2023-04-01T15:40:54;8.40;99.90
17381;DHT22;8808;52.478;13.378;2023-04-01T15:43:36;8.40;99.90
17381;DHT22;8808;52.478;13.378;2023-04-01T15:46:20;8.50;99.90
17381;DHT22;8808;52.478;13.378;2023-04-01T15:49:01;8.50;99.90
17381;DHT22;8808;52.478;13.378;2023-04-01T15:55:01;8.30;99.90
17381;DHT22;8808;52.478;13.378;2023-04-01T15:57:43;8.40;99.90
17381;DHT22;8808;52.478;13.378;2023-04-01T16:00:24;8.40;99.90
17381;DHT22;8808;52.478;13.378;2023-04-01T16:03:12;8.40;99.90
17381;DHT22;8808;52.478;13.378;2023-04-01T16:05:49;8.30;99.90
17381;DHT22;8808;52.478;13.378;2023-04-01T16:11:21;8.20;99.90
17381;DHT22;8808;52.478;13.378;2023-04-01T16:14:05;8.20;99.90
17381;DHT22;8808;52.478;13.378;2023-04-01T16:16:51;8.40;99.90
17381;DHT22;8808;52.478;13.378;2023-04-01T16:19:31;8.30;99.90
17381;DHT22;8808;52.478;13.378;2023-04-01T16:22:05;8.20;99.90
17381;DHT22;8808;52.478;13.378;2023-04-01T16:24:35;8.00;99.90
17381;DHT22;8808;52.478;13.378;2023-04-01T16:27:10;8.00;99.90
17381;DHT22;8808;52.478;13.378;2023-04-01T16:29:44;7.90;99.90
17381;DHT22;8808;52.478;13.378;2023-04-01T16:32:23;8.10;99.90
17381;DHT22;8808;52.478;13.378;2023-04-01T16:35:03;8.10;99.90
17381;DHT22;8808;52.478;13.378;2023-04-01T16:37:35;7.90;99.90
17381;DHT22;8808;52.478;13.378;2023-04-01T16:40:13;7.80;99.90
17381;DHT22;8808;52.478;13.378;2023-04-01T16:42:49;7.80;99.90
17381;DHT22;8808;52.478;13.378;2023-04-01T16:45:25;7.80;99.90
17381;DHT22;8808;52.478;13.378;2023-04-01T16:47:56;7.70;99.90
17381;DHT22;8808;52.478;13.378;2023-04-01T16:50:28;7.80;99.90
17381;DHT22;8808;52.478;13.378;2023-04-01T16:53:02;7.60;99.90
17381;DHT22;8808;52.478;13.378;2023-04-01T16:55:44;7.60;99.90
17381;DHT22;8808;52.478;13.378;2023-04-01T16:58:20;7.60;99.90
17381;DHT22;8808;52.478;13.378;2023-04-01T17:00:50;7.60;99.90
17381;DHT22;8808;52.478;13.378;2023-04-01T17:03:24;7.50;99.90
17381;DHT22;8808;52.478;13.378;2023-04-01T17:06:05;7.50;99.90
17381;DHT22;8808;52.478;13.378;2023-04-01T17:09:00;7.50;99.90
17381;DHT22;8808;52.478;13.378;2023-04-01T17:11:34;7.50;99.90
17381;DHT22;8808;52.478;13.378;2023-04-01T17:14:10;7.50;99.90
17381;DHT22;8808;52.478;13.378;2023-04-01T17:19:45;7.60;99.90
17381;DHT22;8808;52.478;13.378;2023-04-01T17:22:24;7.40;99.90
17381;DHT22;8808;52.478;13.378;2023-04-01T17:27:50;7.70;99.90
17381;DHT22;8808;52.478;13.378;2023-04-01T17:30:25;7.60;99.90
17381;DHT22;8808;52.478;13.378;2023-04-01T17:33:25;7.50;99.90
17381;DHT22;8808;52.478;13.378;2023-04-01T17:36:01;7.30;99.90
17381;DHT22;8808;52.478;13.378;2023-04-01T17:38:45;7.20;99.90
17381;DHT22;8808;52.478;13.378;2023-04-01T17:41:24;7.10;99.90
17381;DHT22;8808;52.478;13.378;2023-04-01T17:43:58;7.20;99.90
17381;DHT22;8808;52.478;13.378;2023-04-01T17:46:44;7.40;99.90
17381;DHT22;8808;52.478;13.378;2023-04-01T17:49:22;7.10;99.90
17381;DHT22;8808;52.478;13.378;2023-04-01T17:51:58;7.10;99.90
17381;DHT22;8808;52.478;13.378;2023-04-01T17:54:32;7.00;99.90
17381;DHT22;8808;52.478;13.378;2023-04-01T17:57:24;7.20;99.90
17381;DHT22;8808;52.478;13.378;2023-04-01T18:00:00;6.90;99.90
17381;DHT22;8808;52.478;13.378;2023-04-01T18:02:33;6.90;99.90
17381;DHT22;8808;52.478;13.378;2023-04-01T18:05:19;6.90;99.90
17381;DHT22;8808;52.478;13.378;2023-04-01T18:08:16;6.80;99.90
17381;DHT22;8808;52.478;13.378;2023-04-01T18:10:57;6.80;99.90
17381;DHT22;8808;52.478;13.378;2023-04-01T18:13:54;6.80;99.90
17381;DHT22;8808;52.478;13.378;2023-04-01T18:16:40;6.80;99.90
17381;DHT22;8808;52.478;13.378;2023-04-01T18:19:16;6.80;99.90
17381;DHT22;8808;52.478;13.378;2023-04-01T18:21:47;6.70;99.90
17381;DHT22;8808;52.478;13.378;2023-04-01T18:24:22;6.70;99.90
17381;DHT22;8808;52.478;13.378;2023-04-01T18:27:02;6.70;99.90
17381;DHT22;8808;52.478;13.378;2023-04-01T18:29:40;6.70;99.90
17381;DHT22;8808;52.478;13.378;2023-04-01T18:32:14;6.80;99.90
17381;DHT22;8808;52.478;13.378;2023-04-01T18:34:52;6.60;99.90
17381;DHT22;8808;52.478;13.378;2023-04-01T18:37:25;6.70;99.90
17381;DHT22;8808;52.478;13.378;2023-04-01T18:39:59;6.50;99.90
17381;DHT22;8808;52.478;13.378;2023-04-01T18:42:38;6.50;99.90
17381;DHT22;8808;52.478;13.378;2023-04-01T18:45:19;6.60;99.90
17381;DHT22;8808;52.478;13.378;2023-04-01T18:47:56;6.60;99.90
17381;DHT22;8808;52.478;13.378;2023-04-01T18:50:28;6.60;99.90
17381;DHT22;8808;52.478;13.378;2023-04-01T18:52:59;6.40;99.90